Pagrindinis puslapis
METAR-TAF:

METAR-TAF

Oro uostai :

Čiangmajus, Tailandas

platuma: 18-47N, ilguma: 098-59E, Aukštis: 312 m

Dabartinis oras

Ataskaita buvo paskelbta 41 minutes, ne 20:00 UTC
Vėjas 2 kt nuo kintamojo kryptimis
Temperatūra 24°C
Drėgmė 94%
Slėgis 1009 hPa
Matomumas 10 km arba daugiau
Su prošvaistėmis ne aukštis 3500 ft

METAR: VTCC 172000Z VRB02KT 9999 BKN035 24/23 Q1009 NOSIG

Laikas: 03:41 (20:41 UTC)

Prognozė

Ataskaita buvo paskelbta 3 valandos ir 41 minutes, ne 17:00 UTC
Prognozė galioja nuo 17 metu 18 UTC su 18 metu 24 UTC
Vėjas 5 kt iš Pietvakarių
Matomumas 10 km arba daugiau
Su prošvaistėmis ne aukštis 3500 ft
Laikinai
nuo 18 metu 06 UTC su 18 metu 12 UTC
Vėjas 15 kt nuo kintamojo kryptimis su gūsio iki 25 kt
Matomumas: 5000 m
Mažai debesys ne aukštis 2000 ft, Liūtiniai kamuoliniai debesys.
Su prošvaistėmis ne aukštis 2500 ft
perkūnija, lietus

TAF: VTCC 171700Z 1718/1824 22005KT 9999 BKN035 TEMPO 1806/1812 VRB15G25KT 5000 TSRA FEW020CB BKN025

Orai ataskaitas ir orų prognozės (METAR, TAF).

turimą stotys yra geltonos ir raudonos taškus žemėlapyje.

Perkelti pele per norėdami pamatyti stoties vardą.

Tada spustelėkite, norėdami matyti oro stebėjimo ir prognozės.

Norėdami pakeisti žemėlapį: spustelėkite ant žalios mygtukų su juodo kryžiaus žemyn,; žalią mygtuką su brūkšneliu, jei norite nutolinti; arba žalių rodyklių gretimoms žemėlapius.


METAR-TAF: